sensor_id;sensor_type;location;lat;lon;timestamp;pressure;altitude;pressure_sealevel;temperature;humidity
76464;BME280;65301;46.666;20.110;2024-03-02T00:01:51;100252.25;;;11.23;78.44
76464;BME280;65301;46.666;20.110;2024-03-02T00:04:53;100262.03;;;11.22;78.93
76464;BME280;65301;46.666;20.110;2024-03-02T00:07:57;100260.63;;;11.25;78.43
76464;BME280;65301;46.666;20.110;2024-03-02T00:11:00;100261.41;;;11.25;78.62
76464;BME280;65301;46.666;20.110;2024-03-02T00:14:02;100255.50;;;11.20;80.42
76464;BME280;65301;46.666;20.110;2024-03-02T00:17:04;100253.66;;;11.12;79.67
76464;BME280;65301;46.666;20.110;2024-03-02T00:20:09;100252.13;;;11.11;80.89
76464;BME280;65301;46.666;20.110;2024-03-02T00:23:14;100256.47;;;11.15;80.53
76464;BME280;65301;46.666;20.110;2024-03-02T00:26:17;100258.16;;;11.11;80.55
76464;BME280;65301;46.666;20.110;2024-03-02T00:29:18;100251.16;;;11.15;80.49
76464;BME280;65301;46.666;20.110;2024-03-02T00:32:22;100251.97;;;11.16;80.10
76464;BME280;65301;46.666;20.110;2024-03-02T00:35:24;100246.97;;;11.14;81.00
76464;BME280;65301;46.666;20.110;2024-03-02T00:38:27;100246.50;;;11.21;80.81
76464;BME280;65301;46.666;20.110;2024-03-02T00:41:32;100251.13;;;11.24;80.08
76464;BME280;65301;46.666;20.110;2024-03-02T00:44:34;100257.53;;;11.23;79.99
76464;BME280;65301;46.666;20.110;2024-03-02T00:47:38;100235.28;;;11.24;80.77
76464;BME280;65301;46.666;20.110;2024-03-02T00:50:40;100246.19;;;11.22;80.47
76464;BME280;65301;46.666;20.110;2024-03-02T00:53:42;100248.19;;;11.17;80.77
76464;BME280;65301;46.666;20.110;2024-03-02T00:56:44;100239.84;;;11.06;80.67
76464;BME280;65301;46.666;20.110;2024-03-02T00:59:46;100239.66;;;11.11;81.77
76464;BME280;65301;46.666;20.110;2024-03-02T01:02:47;100235.78;;;11.17;81.68
76464;BME280;65301;46.666;20.110;2024-03-02T01:05:49;100235.72;;;11.26;82.09
76464;BME280;65301;46.666;20.110;2024-03-02T01:08:51;100240.25;;;11.25;83.85
76464;BME280;65301;46.666;20.110;2024-03-02T01:11:54;100247.59;;;11.20;85.25
76464;BME280;65301;46.666;20.110;2024-03-02T01:14:56;100250.06;;;11.16;84.59
76464;BME280;65301;46.666;20.110;2024-03-02T01:17:58;100260.81;;;11.11;85.29
76464;BME280;65301;46.666;20.110;2024-03-02T01:21:00;100255.22;;;11.13;85.14
76464;BME280;65301;46.666;20.110;2024-03-02T01:24:01;100247.91;;;11.10;85.36
76464;BME280;65301;46.666;20.110;2024-03-02T01:27:03;100248.25;;;11.08;85.54
76464;BME280;65301;46.666;20.110;2024-03-02T01:30:06;100253.53;;;11.08;86.16
76464;BME280;65301;46.666;20.110;2024-03-02T01:33:08;100255.22;;;11.04;85.79
76464;BME280;65301;46.666;20.110;2024-03-02T01:36:10;100258.03;;;11.08;85.48
76464;BME280;65301;46.666;20.110;2024-03-02T01:39:12;100251.50;;;11.05;86.03
76464;BME280;65301;46.666;20.110;2024-03-02T01:42:14;100243.56;;;11.05;86.04
76464;BME280;65301;46.666;20.110;2024-03-02T01:45:16;100243.41;;;11.02;86.57
76464;BME280;65301;46.666;20.110;2024-03-02T01:48:18;100245.13;;;10.98;87.94
76464;BME280;65301;46.666;20.110;2024-03-02T01:51:20;100232.09;;;10.93;87.88
76464;BME280;65301;46.666;20.110;2024-03-02T01:54:23;100224.66;;;10.86;90.33
76464;BME280;65301;46.666;20.110;2024-03-02T01:57:25;100223.28;;;10.71;92.33
76464;BME280;65301;46.666;20.110;2024-03-02T02:00:26;100227.63;;;10.76;91.32
76464;BME280;65301;46.666;20.110;2024-03-02T02:03:29;100232.13;;;10.76;90.59
76464;BME280;65301;46.666;20.110;2024-03-02T02:06:31;100225.94;;;10.63;90.34
76464;BME280;65301;46.666;20.110;2024-03-02T02:09:33;100223.13;;;10.42;92.45
76464;BME280;65301;46.666;20.110;2024-03-02T02:12:36;100233.22;;;10.49;92.97
76464;BME280;65301;46.666;20.110;2024-03-02T02:15:39;100237.59;;;10.53;91.84
76464;BME280;65301;46.666;20.110;2024-03-02T02:18:41;100236.03;;;10.52;93.02
76464;BME280;65301;46.666;20.110;2024-03-02T02:21:43;100240.38;;;10.48;93.67
76464;BME280;65301;46.666;20.110;2024-03-02T02:24:45;100244.09;;;10.39;95.20
76464;BME280;65301;46.666;20.110;2024-03-02T02:27:46;100247.34;;;10.44;93.85
76464;BME280;65301;46.666;20.110;2024-03-02T02:30:48;100248.28;;;10.40;94.06
76464;BME280;65301;46.666;20.110;2024-03-02T02:33:50;100242.41;;;10.43;93.45
76464;BME280;65301;46.666;20.110;2024-03-02T02:36:52;100243.78;;;10.23;95.03
76464;BME280;65301;46.666;20.110;2024-03-02T02:39:54;100246.25;;;10.28;95.29
76464;BME280;65301;46.666;20.110;2024-03-02T02:42:59;100247.50;;;10.31;95.61
76464;BME280;65301;46.666;20.110;2024-03-02T02:46:01;100248.44;;;10.35;95.59
76464;BME280;65301;46.666;20.110;2024-03-02T02:49:03;100249.97;;;10.19;96.17
76464;BME280;65301;46.666;20.110;2024-03-02T02:52:05;100251.84;;;10.18;97.05
76464;BME280;65301;46.666;20.110;2024-03-02T02:55:09;100248.69;;;10.07;98.28
76464;BME280;65301;46.666;20.110;2024-03-02T02:58:12;100246.34;;;10.06;97.45
76464;BME280;65301;46.666;20.110;2024-03-02T03:01:17;100247.41;;;9.96;98.50
76464;BME280;65301;46.666;20.110;2024-03-02T03:04:19;100250.25;;;10.00;98.78
76464;BME280;65301;46.666;20.110;2024-03-02T03:07:21;100253.50;;;10.05;98.29
76464;BME280;65301;46.666;20.110;2024-03-02T03:10:23;100254.72;;;9.99;100.00
76464;BME280;65301;46.666;20.110;2024-03-02T03:13:27;100255.66;;;10.03;100.00
76464;BME280;65301;46.666;20.110;2024-03-02T03:16:29;100253.97;;;10.07;100.00
76464;BME280;65301;46.666;20.110;2024-03-02T03:19:31;100258.44;;;9.90;100.00
76464;BME280;65301;46.666;20.110;2024-03-02T03:22:33;100252.22;;;9.94;100.00
76464;BME280;65301;46.666;20.110;2024-03-02T03:25:34;100255.03;;;9.98;100.00
76464;BME280;65301;46.666;20.110;2024-03-02T03:28:36;100253.63;;;10.00;100.00
76464;BME280;65301;46.666;20.110;2024-03-02T03:31:38;100255.06;;;10.06;100.00
76464;BME280;65301;46.666;20.110;2024-03-02T03:34:40;100263.44;;;10.08;100.00
76464;BME280;65301;46.666;20.110;2024-03-02T03:37:42;100260.94;;;10.03;100.00
76464;BME280;65301;46.666;20.110;2024-03-02T03:40:44;100262.66;;;10.08;100.00
76464;BME280;65301;46.666;20.110;2024-03-02T03:43:46;100261.56;;;10.09;100.00
76464;BME280;65301;46.666;20.110;2024-03-02T03:46:48;100261.13;;;10.07;100.00
76464;BME280;65301;46.666;20.110;2024-03-02T03:49:50;100253.81;;;10.04;100.00
76464;BME280;65301;46.666;20.110;2024-03-02T03:52:52;100255.47;;;9.91;100.00
76464;BME280;65301;46.666;20.110;2024-03-02T03:55:53;100255.75;;;9.81;100.00
76464;BME280;65301;46.666;20.110;2024-03-02T03:58:55;100253.94;;;9.90;100.00
76464;BME280;65301;46.666;20.110;2024-03-02T04:01:57;100253.00;;;9.95;100.00
76464;BME280;65301;46.666;20.110;2024-03-02T04:04:59;100252.38;;;9.89;100.00
76464;BME280;65301;46.666;20.110;2024-03-02T04:08:00;100255.66;;;9.95;100.00
76464;BME280;65301;46.666;20.110;2024-03-02T04:11:03;100253.03;;;10.03;100.00
76464;BME280;65301;46.666;20.110;2024-03-02T04:14:05;100255.66;;;10.03;100.00
76464;BME280;65301;46.666;20.110;2024-03-02T04:17:07;100258.63;;;10.11;100.00
76464;BME280;65301;46.666;20.110;2024-03-02T04:20:10;100257.09;;;10.10;100.00
76464;BME280;65301;46.666;20.110;2024-03-02T04:23:14;100260.22;;;10.12;100.00
76464;BME280;65301;46.666;20.110;2024-03-02T04:26:15;100259.25;;;10.07;100.00
76464;BME280;65301;46.666;20.110;2024-03-02T04:29:21;100265.28;;;10.08;100.00
76464;BME280;65301;46.666;20.110;2024-03-02T04:32:23;100270.78;;;10.12;100.00
76464;BME280;65301;46.666;20.110;2024-03-02T04:35:24;100265.94;;;10.05;100.00
76464;BME280;65301;46.666;20.110;2024-03-02T04:38:27;100266.69;;;10.05;100.00
76464;BME280;65301;46.666;20.110;2024-03-02T04:41:30;100274.31;;;10.07;100.00
76464;BME280;65301;46.666;20.110;2024-03-02T04:44:32;100273.19;;;9.99;100.00
76464;BME280;65301;46.666;20.110;2024-03-02T04:47:34;100275.69;;;10.04;100.00
76464;BME280;65301;46.666;20.110;2024-03-02T04:50:35;100279.13;;;10.05;100.00
76464;BME280;65301;46.666;20.110;2024-03-02T04:53:37;100281.91;;;10.00;100.00
76464;BME280;65301;46.666;20.110;2024-03-02T04:56:39;100284.41;;;10.05;100.00
76464;BME280;65301;46.666;20.110;2024-03-02T04:59:46;100281.25;;;9.94;100.00
76464;BME280;65301;46.666;20.110;2024-03-02T05:02:48;100288.25;;;9.99;100.00
76464;BME280;65301;46.666;20.110;2024-03-02T05:05:49;100292.91;;;10.02;100.00
76464;BME280;65301;46.666;20.110;2024-03-02T05:08:51;100285.28;;;10.00;100.00
76464;BME280;65301;46.666;20.110;2024-03-02T05:11:53;100292.91;;;10.02;100.00
76464;BME280;65301;46.666;20.110;2024-03-02T05:15:17;100298.31;;;9.97;100.00
76464;BME280;65301;46.666;20.110;2024-03-02T05:18:19;100300.19;;;9.96;100.00
76464;BME280;65301;46.666;20.110;2024-03-02T05:21:20;100300.66;;;9.98;100.00
76464;BME280;65301;46.666;20.110;2024-03-02T05:24:22;100300.50;;;9.95;100.00
76464;BME280;65301;46.666;20.110;2024-03-02T05:27:24;100300.44;;;9.86;100.00
76464;BME280;65301;46.666;20.110;2024-03-02T05:30:26;100303.53;;;9.80;100.00
76464;BME280;65301;46.666;20.110;2024-03-02T05:33:28;100309.00;;;9.83;100.00
76464;BME280;65301;46.666;20.110;2024-03-02T05:36:35;100306.44;;;9.70;100.00
76464;BME280;65301;46.666;20.110;2024-03-02T05:39:37;100313.88;;;9.68;100.00
76464;BME280;65301;46.666;20.110;2024-03-02T05:42:39;100321.44;;;9.61;100.00
76464;BME280;65301;46.666;20.110;2024-03-02T05:45:42;100318.63;;;9.57;100.00
76464;BME280;65301;46.666;20.110;2024-03-02T05:48:44;100323.41;;;9.47;100.00
76464;BME280;65301;46.666;20.110;2024-03-02T05:51:46;100321.91;;;9.54;100.00
76464;BME280;65301;46.666;20.110;2024-03-02T05:54:48;100329.81;;;9.54;100.00
76464;BME280;65301;46.666;20.110;2024-03-02T05:57:51;100325.34;;;9.63;100.00
76464;BME280;65301;46.666;20.110;2024-03-02T06:01:07;100321.19;;;9.71;100.00
76464;BME280;65301;46.666;20.110;2024-03-02T06:04:10;100337.34;;;9.78;100.00
76464;BME280;65301;46.666;20.110;2024-03-02T06:07:15;100333.81;;;9.82;100.00
76464;BME280;65301;46.666;20.110;2024-03-02T06:10:16;100329.78;;;9.85;100.00
76464;BME280;65301;46.666;20.110;2024-03-02T06:13:19;100333.34;;;9.89;100.00
76464;BME280;65301;46.666;20.110;2024-03-02T06:16:20;100335.84;;;9.85;100.00
76464;BME280;65301;46.666;20.110;2024-03-02T06:19:22;100330.84;;;9.84;100.00
76464;BME280;65301;46.666;20.110;2024-03-02T06:22:24;100336.44;;;9.82;100.00
76464;BME280;65301;46.666;20.110;2024-03-02T06:25:27;100332.88;;;9.87;100.00
76464;BME280;65301;46.666;20.110;2024-03-02T06:28:29;100334.63;;;9.91;100.00
76464;BME280;65301;46.666;20.110;2024-03-02T06:31:31;100337.25;;;9.91;100.00
76464;BME280;65301;46.666;20.110;2024-03-02T06:34:33;100333.53;;;9.92;100.00
76464;BME280;65301;46.666;20.110;2024-03-02T06:37:36;100336.66;;;9.94;100.00
76464;BME280;65301;46.666;20.110;2024-03-02T06:40:39;100340.41;;;10.02;100.00
76464;BME280;65301;46.666;20.110;2024-03-02T06:43:42;100328.91;;;9.98;100.00
76464;BME280;65301;46.666;20.110;2024-03-02T06:46:44;100338.97;;;9.96;100.00
76464;BME280;65301;46.666;20.110;2024-03-02T06:49:45;100339.94;;;10.00;100.00
76464;BME280;65301;46.666;20.110;2024-03-02T06:52:47;100344.13;;;10.01;100.00
76464;BME280;65301;46.666;20.110;2024-03-02T06:55:49;100344.13;;;10.01;100.00
76464;BME280;65301;46.666;20.110;2024-03-02T06:58:51;100346.81;;;10.10;100.00
76464;BME280;65301;46.666;20.110;2024-03-02T07:01:53;100345.53;;;10.07;100.00
76464;BME280;65301;46.666;20.110;2024-03-02T07:04:55;100348.34;;;10.11;100.00
76464;BME280;65301;46.666;20.110;2024-03-02T07:07:57;100354.91;;;10.13;100.00
76464;BME280;65301;46.666;20.110;2024-03-02T07:10:59;100348.53;;;10.14;100.00
76464;BME280;65301;46.666;20.110;2024-03-02T07:14:01;100354.75;;;10.18;100.00
76464;BME280;65301;46.666;20.110;2024-03-02T07:17:03;100357.50;;;10.04;100.00
76464;BME280;65301;46.666;20.110;2024-03-02T07:20:05;100357.63;;;10.08;100.00
76464;BME280;65301;46.666;20.110;2024-03-02T07:23:08;100358.88;;;10.02;100.00
76464;BME280;65301;46.666;20.110;2024-03-02T07:26:10;100361.00;;;9.91;100.00
76464;BME280;65301;46.666;20.110;2024-03-02T07:29:15;100365.41;;;10.04;100.00
76464;BME280;65301;46.666;20.110;2024-03-02T07:32:17;100362.28;;;10.02;100.00
76464;BME280;65301;46.666;20.110;2024-03-02T07:35:19;100362.69;;;9.87;100.00
76464;BME280;65301;46.666;20.110;2024-03-02T07:38:21;100364.22;;;9.88;100.00
76464;BME280;65301;46.666;20.110;2024-03-02T07:41:23;100369.28;;;9.76;100.00
76464;BME280;65301;46.666;20.110;2024-03-02T07:44:25;100377.53;;;9.75;100.00
76464;BME280;65301;46.666;20.110;2024-03-02T07:47:27;100370.88;;;9.77;100.00
76464;BME280;65301;46.666;20.110;2024-03-02T07:50:29;100375.00;;;9.70;100.00
76464;BME280;65301;46.666;20.110;2024-03-02T07:53:31;100374.41;;;9.73;100.00
76464;BME280;65301;46.666;20.110;2024-03-02T07:56:34;100381.97;;;9.66;100.00
76464;BME280;65301;46.666;20.110;2024-03-02T07:59:36;100387.13;;;9.49;100.00
76464;BME280;65301;46.666;20.110;2024-03-02T08:02:39;100379.59;;;9.56;100.00
76464;BME280;65301;46.666;20.110;2024-03-02T08:05:42;100390.59;;;9.58;100.00
76464;BME280;65301;46.666;20.110;2024-03-02T08:08:43;100386.91;;;9.59;100.00
76464;BME280;65301;46.666;20.110;2024-03-02T08:11:45;100391.38;;;9.58;100.00
76464;BME280;65301;46.666;20.110;2024-03-02T08:14:47;100392.44;;;9.57;100.00
76464;BME280;65301;46.666;20.110;2024-03-02T08:17:49;100385.22;;;9.63;100.00
76464;BME280;65301;46.666;20.110;2024-03-02T08:20:51;100390.47;;;9.63;100.00
76464;BME280;65301;46.666;20.110;2024-03-02T08:23:53;100398.47;;;9.71;100.00
76464;BME280;65301;46.666;20.110;2024-03-02T08:26:55;100394.97;;;9.62;100.00
76464;BME280;65301;46.666;20.110;2024-03-02T08:29:57;100399.41;;;9.53;100.00
76464;BME280;65301;46.666;20.110;2024-03-02T08:32:59;100402.19;;;9.48;100.00
76464;BME280;65301;46.666;20.110;2024-03-02T08:36:01;100403.75;;;9.49;98.86
76464;BME280;65301;46.666;20.110;2024-03-02T08:39:04;100401.59;;;9.51;99.40
76464;BME280;65301;46.666;20.110;2024-03-02T08:42:09;100397.03;;;9.43;98.82
76464;BME280;65301;46.666;20.110;2024-03-02T08:45:10;100404.09;;;9.34;98.08
76464;BME280;65301;46.666;20.110;2024-03-02T08:48:12;100398.94;;;9.29;98.04
76464;BME280;65301;46.666;20.110;2024-03-02T08:51:14;100406.03;;;9.42;100.00
76464;BME280;65301;46.666;20.110;2024-03-02T08:54:16;100407.22;;;9.36;99.66
76464;BME280;65301;46.666;20.110;2024-03-02T08:57:18;100402.59;;;9.42;100.00
76464;BME280;65301;46.666;20.110;2024-03-02T09:00:20;100407.31;;;9.53;100.00
76464;BME280;65301;46.666;20.110;2024-03-02T09:03:22;100408.91;;;9.54;100.00
76464;BME280;65301;46.666;20.110;2024-03-02T09:06:24;100406.84;;;9.51;100.00
76464;BME280;65301;46.666;20.110;2024-03-02T09:09:26;100408.22;;;9.49;100.00
76464;BME280;65301;46.666;20.110;2024-03-02T09:12:28;100409.81;;;9.50;100.00
76464;BME280;65301;46.666;20.110;2024-03-02T09:15:30;100412.44;;;9.50;100.00
76464;BME280;65301;46.666;20.110;2024-03-02T09:18:34;100415.19;;;9.45;100.00
76464;BME280;65301;46.666;20.110;2024-03-02T09:21:36;100415.00;;;9.41;100.00
76464;BME280;65301;46.666;20.110;2024-03-02T09:24:38;100418.59;;;9.45;100.00
76464;BME280;65301;46.666;20.110;2024-03-02T09:27:40;100422.06;;;9.54;100.00
76464;BME280;65301;46.666;20.110;2024-03-02T09:30:42;100416.50;;;9.33;100.00
76464;BME280;65301;46.666;20.110;2024-03-02T09:33:44;100425.31;;;9.51;100.00
76464;BME280;65301;46.666;20.110;2024-03-02T09:36:50;100419.84;;;9.48;100.00
76464;BME280;65301;46.666;20.110;2024-03-02T09:39:53;100430.88;;;9.50;100.00
76464;BME280;65301;46.666;20.110;2024-03-02T09:42:56;100417.94;;;9.39;100.00
76464;BME280;65301;46.666;20.110;2024-03-02T09:45:58;100418.66;;;9.54;100.00
76464;BME280;65301;46.666;20.110;2024-03-02T09:49:00;100417.78;;;9.67;100.00
76464;BME280;65301;46.666;20.110;2024-03-02T09:52:03;100415.00;;;9.63;99.12
76464;BME280;65301;46.666;20.110;2024-03-02T09:55:06;100419.78;;;9.61;96.99
76464;BME280;65301;46.666;20.110;2024-03-02T09:58:08;100407.00;;;9.55;97.70
76464;BME280;65301;46.666;20.110;2024-03-02T10:01:10;100415.78;;;9.64;100.00
76464;BME280;65301;46.666;20.110;2024-03-02T10:04:13;100414.41;;;9.66;98.26
76464;BME280;65301;46.666;20.110;2024-03-02T10:07:16;100424.03;;;9.71;97.04
76464;BME280;65301;46.666;20.110;2024-03-02T10:10:18;100423.81;;;9.59;99.14
76464;BME280;65301;46.666;20.110;2024-03-02T10:13:24;100409.41;;;9.65;98.10
76464;BME280;65301;46.666;20.110;2024-03-02T10:16:26;100416.59;;;9.73;99.23
76464;BME280;65301;46.666;20.110;2024-03-02T10:19:28;100418.22;;;9.82;97.96
76464;BME280;65301;46.666;20.110;2024-03-02T10:22:34;100415.25;;;9.84;97.35
76464;BME280;65301;46.666;20.110;2024-03-02T10:25:36;100413.47;;;9.93;98.08
76464;BME280;65301;46.666;20.110;2024-03-02T10:28:51;100411.44;;;9.90;98.52
76464;BME280;65301;46.666;20.110;2024-03-02T10:32:02;100412.25;;;9.99;100.00
76464;BME280;65301;46.666;20.110;2024-03-02T10:35:05;100406.22;;;10.07;100.00
76464;BME280;65301;46.666;20.110;2024-03-02T10:38:08;100403.41;;;10.03;98.96
76464;BME280;65301;46.666;20.110;2024-03-02T10:41:17;100403.59;;;10.07;100.00
76464;BME280;65301;46.666;20.110;2024-03-02T10:44:19;100398.56;;;10.19;100.00
76464;BME280;65301;46.666;20.110;2024-03-02T10:47:21;100400.84;;;10.12;98.62
76464;BME280;65301;46.666;20.110;2024-03-02T10:50:24;100396.38;;;10.21;100.00
76464;BME280;65301;46.666;20.110;2024-03-02T10:53:26;100402.91;;;10.24;99.47
76464;BME280;65301;46.666;20.110;2024-03-02T10:56:33;100403.56;;;10.38;99.34
76464;BME280;65301;46.666;20.110;2024-03-02T10:59:37;100392.56;;;10.36;100.00
76464;BME280;65301;46.666;20.110;2024-03-02T11:02:47;100401.72;;;10.38;98.90
76464;BME280;65301;46.666;20.110;2024-03-02T11:05:51;100403.16;;;10.53;98.74
76464;BME280;65301;46.666;20.110;2024-03-02T11:08:55;100403.16;;;10.53;98.32
76464;BME280;65301;46.666;20.110;2024-03-02T11:12:11;100399.69;;;10.44;98.65
76464;BME280;65301;46.666;20.110;2024-03-02T11:15:18;100400.16;;;10.37;100.00
76464;BME280;65301;46.666;20.110;2024-03-02T11:18:22;100393.94;;;10.33;99.72
76464;BME280;65301;46.666;20.110;2024-03-02T11:21:25;100393.34;;;10.36;99.76
76464;BME280;65301;46.666;20.110;2024-03-02T11:24:28;100400.16;;;10.37;100.00
76464;BME280;65301;46.666;20.110;2024-03-02T11:30:53;100394.53;;;10.30;100.00
76464;BME280;65301;46.666;20.110;2024-03-02T11:33:55;100392.69;;;10.31;100.00
76464;BME280;65301;46.666;20.110;2024-03-02T11:36:58;100388.22;;;10.40;100.00
76464;BME280;65301;46.666;20.110;2024-03-02T11:40:03;100384.97;;;10.43;100.00
76464;BME280;65301;46.666;20.110;2024-03-02T11:43:06;100381.38;;;10.39;100.00
76464;BME280;65301;46.666;20.110;2024-03-02T11:46:10;100378.41;;;10.32;100.00
76464;BME280;65301;46.666;20.110;2024-03-02T11:49:35;100384.31;;;10.29;100.00
76464;BME280;65301;46.666;20.110;2024-03-02T11:52:39;100379.34;;;10.36;100.00
76464;BME280;65301;46.666;20.110;2024-03-02T11:55:41;100375.19;;;10.43;100.00
76464;BME280;65301;46.666;20.110;2024-03-02T11:58:48;100376.13;;;10.47;99.00
76464;BME280;65301;46.666;20.110;2024-03-02T12:01:54;100376.72;;;10.44;97.15
76464;BME280;65301;46.666;20.110;2024-03-02T12:04:56;100371.75;;;10.51;95.70
76464;BME280;65301;46.666;20.110;2024-03-02T12:08:06;100381.72;;;10.54;96.53
76464;BME280;65301;46.666;20.110;2024-03-02T12:11:08;100377.53;;;10.62;96.73
76464;BME280;65301;46.666;20.110;2024-03-02T12:14:13;100371.28;;;10.49;96.88
76464;BME280;65301;46.666;20.110;2024-03-02T12:17:15;100375.31;;;10.47;97.62
76464;BME280;65301;46.666;20.110;2024-03-02T12:20:18;100378.09;;;10.42;95.69
76464;BME280;65301;46.666;20.110;2024-03-02T12:23:20;100375.66;;;10.45;95.50
76464;BME280;65301;46.666;20.110;2024-03-02T12:26:22;100374.84;;;10.36;96.03
76464;BME280;65301;46.666;20.110;2024-03-02T12:29:24;100375.03;;;10.48;95.58
76464;BME280;65301;46.666;20.110;2024-03-02T12:32:26;100383.25;;;10.47;94.93
76464;BME280;65301;46.666;20.110;2024-03-02T12:35:29;100383.56;;;10.54;94.94
76464;BME280;65301;46.666;20.110;2024-03-02T12:38:31;100386.38;;;10.57;93.32
76464;BME280;65301;46.666;20.110;2024-03-02T12:41:33;100390.75;;;10.70;93.65
76464;BME280;65301;46.666;20.110;2024-03-02T12:44:34;100387.66;;;10.77;92.43
76464;BME280;65301;46.666;20.110;2024-03-02T12:47:37;100391.41;;;10.85;92.55
76464;BME280;65301;46.666;20.110;2024-03-02T12:50:40;100391.09;;;11.12;91.92
76464;BME280;65301;46.666;20.110;2024-03-02T12:53:42;100393.44;;;11.13;90.88
76464;BME280;65301;46.666;20.110;2024-03-02T12:56:44;100393.75;;;11.20;90.28
76464;BME280;65301;46.666;20.110;2024-03-02T12:59:48;100391.38;;;11.36;91.72
76464;BME280;65301;46.666;20.110;2024-03-02T13:02:50;100383.00;;;11.43;89.96
76464;BME280;65301;46.666;20.110;2024-03-02T13:05:53;100380.16;;;11.56;89.72
76464;BME280;65301;46.666;20.110;2024-03-02T13:08:55;100382.97;;;11.51;90.79
76464;BME280;65301;46.666;20.110;2024-03-02T13:11:57;100385.91;;;11.58;90.31
76464;BME280;65301;46.666;20.110;2024-03-02T13:15:03;100379.53;;;11.59;91.93
76464;BME280;65301;46.666;20.110;2024-03-02T13:18:07;100382.94;;;11.77;88.75
76464;BME280;65301;46.666;20.110;2024-03-02T13:21:09;100382.09;;;11.93;88.56
76464;BME280;65301;46.666;20.110;2024-03-02T13:24:10;100375.03;;;12.15;89.63
76464;BME280;65301;46.666;20.110;2024-03-02T13:27:12;100378.22;;;12.29;87.25
76464;BME280;65301;46.666;20.110;2024-03-02T13:30:15;100379.03;;;12.21;87.81
76464;BME280;65301;46.666;20.110;2024-03-02T13:33:16;100387.66;;;12.09;87.74
76464;BME280;65301;46.666;20.110;2024-03-02T13:36:23;100385.84;;;11.92;87.15
76464;BME280;65301;46.666;20.110;2024-03-02T13:39:25;100388.16;;;12.02;88.80
76464;BME280;65301;46.666;20.110;2024-03-02T13:42:28;100387.03;;;12.12;90.00
76464;BME280;65301;46.666;20.110;2024-03-02T13:45:30;100393.75;;;12.01;88.64
76464;BME280;65301;46.666;20.110;2024-03-02T13:48:32;100397.06;;;11.98;89.59
76464;BME280;65301;46.666;20.110;2024-03-02T13:51:34;100394.97;;;12.03;91.44
76464;BME280;65301;46.666;20.110;2024-03-02T13:54:43;100384.06;;;12.14;91.13
76464;BME280;65301;46.666;20.110;2024-03-02T13:57:46;100385.28;;;12.16;91.86
76464;BME280;65301;46.666;20.110;2024-03-02T14:00:49;100383.25;;;12.22;90.91
76464;BME280;65301;46.666;20.110;2024-03-02T14:03:51;100380.88;;;12.29;91.09
76464;BME280;65301;46.666;20.110;2024-03-02T14:06:53;100380.25;;;12.32;90.61
76464;BME280;65301;46.666;20.110;2024-03-02T14:09:55;100378.34;;;12.32;90.82
76464;BME280;65301;46.666;20.110;2024-03-02T14:12:57;100377.72;;;12.35;91.39
76464;BME280;65301;46.666;20.110;2024-03-02T14:15:58;100383.00;;;12.35;92.29
76464;BME280;65301;46.666;20.110;2024-03-02T14:19:00;100382.09;;;12.31;93.05
76464;BME280;65301;46.666;20.110;2024-03-02T14:22:02;100377.72;;;12.35;93.43
76464;BME280;65301;46.666;20.110;2024-03-02T14:25:05;100370.84;;;12.34;92.29
76464;BME280;65301;46.666;20.110;2024-03-02T14:28:07;100377.09;;;12.38;90.78
76464;BME280;65301;46.666;20.110;2024-03-02T14:31:29;100377.72;;;12.35;90.08
76464;BME280;65301;46.666;20.110;2024-03-02T14:34:32;100385.47;;;12.40;90.60
76464;BME280;65301;46.666;20.110;2024-03-02T14:37:36;100384.56;;;12.36;91.29
76464;BME280;65301;46.666;20.110;2024-03-02T14:40:38;100381.16;;;12.36;92.43
76464;BME280;65301;46.666;20.110;2024-03-02T14:43:40;100375.56;;;12.29;91.67
76464;BME280;65301;46.666;20.110;2024-03-02T14:46:42;100382.22;;;12.35;92.06
76464;BME280;65301;46.666;20.110;2024-03-02T14:49:46;100377.88;;;12.39;91.45
76464;BME280;65301;46.666;20.110;2024-03-02T14:52:48;100377.19;;;12.42;91.60
76464;BME280;65301;46.666;20.110;2024-03-02T14:55:49;100368.50;;;12.41;91.37
76464;BME280;65301;46.666;20.110;2024-03-02T14:58:51;100373.03;;;12.41;89.82
76464;BME280;65301;46.666;20.110;2024-03-02T15:01:53;100371.00;;;12.38;88.39
76464;BME280;65301;46.666;20.110;2024-03-02T15:04:55;100377.88;;;12.39;89.03
76464;BME280;65301;46.666;20.110;2024-03-02T15:07:57;100380.69;;;12.34;88.54
76464;BME280;65301;46.666;20.110;2024-03-02T15:11:01;100375.88;;;12.27;88.69
76464;BME280;65301;46.666;20.110;2024-03-02T15:14:03;100377.88;;;12.30;88.36
76464;BME280;65301;46.666;20.110;2024-03-02T15:17:06;100378.03;;;12.34;87.67
76464;BME280;65301;46.666;20.110;2024-03-02T15:20:08;100378.22;;;12.29;87.86
76464;BME280;65301;46.666;20.110;2024-03-02T15:23:10;100384.31;;;12.29;88.48
76464;BME280;65301;46.666;20.110;2024-03-02T15:26:12;100383.63;;;12.32;90.07
76464;BME280;65301;46.666;20.110;2024-03-02T15:29:14;100389.09;;;12.36;89.04
76464;BME280;65301;46.666;20.110;2024-03-02T15:32:16;100381.44;;;12.34;88.77
76464;BME280;65301;46.666;20.110;2024-03-02T15:35:18;100380.09;;;12.28;88.70
76464;BME280;65301;46.666;20.110;2024-03-02T15:38:19;100379.19;;;12.24;91.45
76464;BME280;65301;46.666;20.110;2024-03-02T15:41:33;100375.03;;;12.15;93.38
76464;BME280;65301;46.666;20.110;2024-03-02T15:44:35;100390.91;;;12.15;94.04